デリー の空港の天気 - METARとTAF

インディラ・ガンディー国際空港 ( VIDP / DEL ) - インド デリー
飛行場実況気象(Metar)
観測時間10/01 20:00 IST (10/01 14:30 UTC)
風向・風速静穏 0m/s
視程2800m
天気現象煙霧
なし
気温31℃
湿度43%
気圧1005hPa
METARVIDP 011430Z 00000KT 2800 HZ NSC 31/17 Q1005 NOSIG
過去の天気等 Google飛行場航空写真 Wunderground天気予報

過去48時間のMETAR

飛行場予報(TAF)
発表時間: 10/01 19:30 IST (10/01 14:00 UTC)
予報対象時間: 1日20時 IST ~ 2日5時 IST
風向・風速不定 1m/s
視程2500m
天気現象煙霧 もや
なし
TAF VIDP 011400Z 0115/0124 VRB02KT 2500 HZ BR NSC